sensor_id;sensor_type;location;lat;lon;timestamp;temperature;humidity
6468;DHT22;3267;48.794;9.928;2023-08-06T04:02:26;18.80;68.70
6468;DHT22;3267;48.794;9.928;2023-08-06T04:04:53;18.80;68.80
6468;DHT22;3267;48.794;9.928;2023-08-06T04:07:19;18.80;68.80
6468;DHT22;3267;48.794;9.928;2023-08-06T04:09:56;18.90;70.70
6468;DHT22;3267;48.794;9.928;2023-08-06T04:12:22;18.90;68.80
6468;DHT22;3267;48.794;9.928;2023-08-06T04:15:00;18.90;70.10
6468;DHT22;3267;48.794;9.928;2023-08-06T04:17:26;18.90;68.70
6468;DHT22;3267;48.794;9.928;2023-08-06T04:19:52;18.80;68.50
6468;DHT22;3267;48.794;9.928;2023-08-06T04:22:18;18.70;68.40
6468;DHT22;3267;48.794;9.928;2023-08-06T04:24:45;18.70;68.50
6468;DHT22;3267;48.794;9.928;2023-08-06T04:27:11;20.50;77.80
6468;DHT22;3267;48.794;9.928;2023-08-06T04:29:37;19.20;70.60
6468;DHT22;3267;48.794;9.928;2023-08-06T04:32:07;19.20;69.60
6468;DHT22;3267;48.794;9.928;2023-08-06T04:34:34;19.80;75.20
6468;DHT22;3267;48.794;9.928;2023-08-06T04:37:00;19.50;69.50
6468;DHT22;3267;48.794;9.928;2023-08-06T04:39:26;19.80;74.30
6468;DHT22;3267;48.794;9.928;2023-08-06T04:41:52;20.10;74.20
6468;DHT22;3267;48.794;9.928;2023-08-06T04:44:18;20.10;75.50
6468;DHT22;3267;48.794;9.928;2023-08-06T04:46:43;21.50;72.80
6468;DHT22;3267;48.794;9.928;2023-08-06T04:49:09;19.90;74.50
6468;DHT22;3267;48.794;9.928;2023-08-06T04:51:35;20.20;72.50
6468;DHT22;3267;48.794;9.928;2023-08-06T04:54:01;19.60;71.60
6468;DHT22;3267;48.794;9.928;2023-08-06T04:56:26;19.70;72.30
6468;DHT22;3267;48.794;9.928;2023-08-06T04:58:52;20.70;73.80
6468;DHT22;3267;48.794;9.928;2023-08-06T05:01:18;20.60;72.30
6468;DHT22;3267;48.794;9.928;2023-08-06T05:03:43;19.70;71.20
6468;DHT22;3267;48.794;9.928;2023-08-06T05:06:09;19.60;71.60
6468;DHT22;3267;48.794;9.928;2023-08-06T05:08:34;20.70;73.60
6468;DHT22;3267;48.794;9.928;2023-08-06T05:11:00;20.00;73.40
6468;DHT22;3267;48.794;9.928;2023-08-06T05:13:26;19.70;71.80
6468;DHT22;3267;48.794;9.928;2023-08-06T05:15:53;19.60;71.20
6468;DHT22;3267;48.794;9.928;2023-08-06T05:18:19;19.80;73.00
6468;DHT22;3267;48.794;9.928;2023-08-06T05:20:45;19.60;71.70
6468;DHT22;3267;48.794;9.928;2023-08-06T05:23:11;19.60;71.70
6468;DHT22;3267;48.794;9.928;2023-08-06T05:25:37;19.60;72.90
6468;DHT22;3267;48.794;9.928;2023-08-06T05:28:03;19.50;71.10
6468;DHT22;3267;48.794;9.928;2023-08-06T05:30:29;19.60;72.60
6468;DHT22;3267;48.794;9.928;2023-08-06T05:32:55;19.60;72.50
6468;DHT22;3267;48.794;9.928;2023-08-06T05:35:21;21.20;73.00
6468;DHT22;3267;48.794;9.928;2023-08-06T05:37:47;20.00;72.00
6468;DHT22;3267;48.794;9.928;2023-08-06T05:40:14;19.70;72.60
6468;DHT22;3267;48.794;9.928;2023-08-06T05:42:40;19.60;73.30
6468;DHT22;3267;48.794;9.928;2023-08-06T05:45:06;19.70;74.20
6468;DHT22;3267;48.794;9.928;2023-08-06T05:47:32;20.00;74.90
6468;DHT22;3267;48.794;9.928;2023-08-06T05:49:57;20.30;76.50
6468;DHT22;3267;48.794;9.928;2023-08-06T05:52:23;20.20;74.00
6468;DHT22;3267;48.794;9.928;2023-08-06T05:54:48;19.80;73.20
6468;DHT22;3267;48.794;9.928;2023-08-06T05:57:14;20.90;74.40
6468;DHT22;3267;48.794;9.928;2023-08-06T05:59:41;19.70;75.30
6468;DHT22;3267;48.794;9.928;2023-08-06T06:02:06;19.50;74.70
6468;DHT22;3267;48.794;9.928;2023-08-06T06:04:32;19.50;72.30
6468;DHT22;3267;48.794;9.928;2023-08-06T06:06:57;19.30;72.20
6468;DHT22;3267;48.794;9.928;2023-08-06T06:09:23;19.20;72.10
6468;DHT22;3267;48.794;9.928;2023-08-06T06:11:49;20.90;74.10
6468;DHT22;3267;48.794;9.928;2023-08-06T06:14:16;19.30;74.10
6468;DHT22;3267;48.794;9.928;2023-08-06T06:16:42;19.20;72.20
6468;DHT22;3267;48.794;9.928;2023-08-06T06:19:08;21.90;75.70
6468;DHT22;3267;48.794;9.928;2023-08-06T06:21:38;21.60;81.50
6468;DHT22;3267;48.794;9.928;2023-08-06T06:24:05;19.40;72.90
6468;DHT22;3267;48.794;9.928;2023-08-06T06:26:31;20.00;73.70
6468;DHT22;3267;48.794;9.928;2023-08-06T06:28:57;19.20;72.30
6468;DHT22;3267;48.794;9.928;2023-08-06T06:31:23;20.10;73.90
6468;DHT22;3267;48.794;9.928;2023-08-06T06:33:48;21.70;75.70
6468;DHT22;3267;48.794;9.928;2023-08-06T06:36:14;19.30;73.10
6468;DHT22;3267;48.794;9.928;2023-08-06T06:38:40;19.20;73.30
6468;DHT22;3267;48.794;9.928;2023-08-06T06:41:05;19.80;73.90
6468;DHT22;3267;48.794;9.928;2023-08-06T06:43:32;20.40;75.80
6468;DHT22;3267;48.794;9.928;2023-08-06T06:46:01;19.40;74.10
6468;DHT22;3267;48.794;9.928;2023-08-06T06:48:28;19.50;73.00
6468;DHT22;3267;48.794;9.928;2023-08-06T06:50:54;19.90;74.90
6468;DHT22;3267;48.794;9.928;2023-08-06T06:53:20;19.60;73.30
6468;DHT22;3267;48.794;9.928;2023-08-06T06:55:47;19.30;72.40
6468;DHT22;3267;48.794;9.928;2023-08-06T06:58:15;19.30;73.80
6468;DHT22;3267;48.794;9.928;2023-08-06T07:00:41;19.30;73.70
6468;DHT22;3267;48.794;9.928;2023-08-06T07:03:07;19.40;73.80
6468;DHT22;3267;48.794;9.928;2023-08-06T07:05:33;19.40;74.20
6468;DHT22;3267;48.794;9.928;2023-08-06T07:07:58;19.50;73.80
6468;DHT22;3267;48.794;9.928;2023-08-06T07:10:25;19.50;75.20
6468;DHT22;3267;48.794;9.928;2023-08-06T07:12:50;19.40;73.30
6468;DHT22;3267;48.794;9.928;2023-08-06T07:15:16;19.80;77.10
6468;DHT22;3267;48.794;9.928;2023-08-06T07:17:43;20.40;77.10
6468;DHT22;3267;48.794;9.928;2023-08-06T07:20:09;20.00;81.30
6468;DHT22;3267;48.794;9.928;2023-08-06T07:22:34;19.90;77.90
6468;DHT22;3267;48.794;9.928;2023-08-06T07:25:01;19.80;76.20
6468;DHT22;3267;48.794;9.928;2023-08-06T07:27:26;19.80;76.20
6468;DHT22;3267;48.794;9.928;2023-08-06T07:29:52;19.50;74.60
6468;DHT22;3267;48.794;9.928;2023-08-06T07:32:18;19.60;77.20
6468;DHT22;3267;48.794;9.928;2023-08-06T07:34:43;21.10;79.50
6468;DHT22;3267;48.794;9.928;2023-08-06T07:37:09;19.60;74.80
6468;DHT22;3267;48.794;9.928;2023-08-06T07:39:35;20.10;76.30
6468;DHT22;3267;48.794;9.928;2023-08-06T07:42:00;19.50;75.10
6468;DHT22;3267;48.794;9.928;2023-08-06T07:44:32;19.70;79.50
6468;DHT22;3267;48.794;9.928;2023-08-06T07:46:58;19.90;80.00
6468;DHT22;3267;48.794;9.928;2023-08-06T07:49:23;20.00;79.20
6468;DHT22;3267;48.794;9.928;2023-08-06T07:51:50;20.10;80.20
6468;DHT22;3267;48.794;9.928;2023-08-06T07:54:17;19.90;79.10
6468;DHT22;3267;48.794;9.928;2023-08-06T07:56:42;20.00;77.50
6468;DHT22;3267;48.794;9.928;2023-08-06T07:59:08;20.80;78.30
6468;DHT22;3267;48.794;9.928;2023-08-06T08:01:35;20.00;80.20
6468;DHT22;3267;48.794;9.928;2023-08-06T08:04:01;20.10;82.00
6468;DHT22;3267;48.794;9.928;2023-08-06T08:06:27;21.10;81.10
6468;DHT22;3267;48.794;9.928;2023-08-06T08:08:52;20.30;82.10
6468;DHT22;3267;48.794;9.928;2023-08-06T08:11:18;20.30;76.70
6468;DHT22;3267;48.794;9.928;2023-08-06T08:13:44;20.50;78.80
6468;DHT22;3267;48.794;9.928;2023-08-06T08:16:10;20.20;79.90
6468;DHT22;3267;48.794;9.928;2023-08-06T08:18:36;20.30;83.90
6468;DHT22;3267;48.794;9.928;2023-08-06T08:21:04;20.40;80.20
6468;DHT22;3267;48.794;9.928;2023-08-06T08:23:30;20.70;83.70
6468;DHT22;3267;48.794;9.928;2023-08-06T08:25:56;20.80;82.50
6468;DHT22;3267;48.794;9.928;2023-08-06T08:28:25;20.50;79.50
6468;DHT22;3267;48.794;9.928;2023-08-06T08:30:51;20.30;80.80
6468;DHT22;3267;48.794;9.928;2023-08-06T08:33:16;20.30;80.00
6468;DHT22;3267;48.794;9.928;2023-08-06T08:35:42;20.20;79.60
6468;DHT22;3267;48.794;9.928;2023-08-06T08:38:07;20.10;81.00
6468;DHT22;3267;48.794;9.928;2023-08-06T08:40:34;20.30;82.10
6468;DHT22;3267;48.794;9.928;2023-08-06T08:43:03;20.20;79.30
6468;DHT22;3267;48.794;9.928;2023-08-06T08:45:29;20.30;80.10
6468;DHT22;3267;48.794;9.928;2023-08-06T08:47:56;20.20;81.20
6468;DHT22;3267;48.794;9.928;2023-08-06T08:50:22;20.20;80.70
6468;DHT22;3267;48.794;9.928;2023-08-06T08:52:47;20.20;81.30
6468;DHT22;3267;48.794;9.928;2023-08-06T08:55:15;20.60;84.50
6468;DHT22;3267;48.794;9.928;2023-08-06T08:57:42;20.70;82.10
6468;DHT22;3267;48.794;9.928;2023-08-06T09:00:08;20.60;80.80
6468;DHT22;3267;48.794;9.928;2023-08-06T09:02:33;20.50;78.10
6468;DHT22;3267;48.794;9.928;2023-08-06T09:05:03;20.40;81.20
6468;DHT22;3267;48.794;9.928;2023-08-06T09:07:35;20.40;78.10
6468;DHT22;3267;48.794;9.928;2023-08-06T09:10:05;20.50;81.50
6468;DHT22;3267;48.794;9.928;2023-08-06T09:12:32;20.30;79.20
6468;DHT22;3267;48.794;9.928;2023-08-06T09:14:58;20.20;77.80
6468;DHT22;3267;48.794;9.928;2023-08-06T09:17:23;20.50;80.90
6468;DHT22;3267;48.794;9.928;2023-08-06T09:19:49;20.40;79.90
6468;DHT22;3267;48.794;9.928;2023-08-06T09:22:16;20.30;78.60
6468;DHT22;3267;48.794;9.928;2023-08-06T09:24:45;20.30;78.50
6468;DHT22;3267;48.794;9.928;2023-08-06T09:27:14;20.40;78.30
6468;DHT22;3267;48.794;9.928;2023-08-06T09:29:42;20.30;79.00
6468;DHT22;3267;48.794;9.928;2023-08-06T09:32:08;20.40;79.40
6468;DHT22;3267;48.794;9.928;2023-08-06T09:34:34;20.30;77.30
6468;DHT22;3267;48.794;9.928;2023-08-06T09:36:59;20.50;78.90
6468;DHT22;3267;48.794;9.928;2023-08-06T09:39:30;20.40;80.60
6468;DHT22;3267;48.794;9.928;2023-08-06T09:41:57;20.70;83.70
6468;DHT22;3267;48.794;9.928;2023-08-06T09:44:24;20.90;82.70
6468;DHT22;3267;48.794;9.928;2023-08-06T09:46:55;20.60;79.10
6468;DHT22;3267;48.794;9.928;2023-08-06T09:49:25;20.40;78.60
6468;DHT22;3267;48.794;9.928;2023-08-06T09:51:51;20.90;83.20
6468;DHT22;3267;48.794;9.928;2023-08-06T09:54:19;20.80;81.00
6468;DHT22;3267;48.794;9.928;2023-08-06T09:56:45;20.90;82.10
6468;DHT22;3267;48.794;9.928;2023-08-06T09:59:10;20.90;79.10
6468;DHT22;3267;48.794;9.928;2023-08-06T10:01:36;21.30;80.60
6468;DHT22;3267;48.794;9.928;2023-08-06T10:04:05;21.00;80.10
6468;DHT22;3267;48.794;9.928;2023-08-06T10:06:34;20.90;78.40
6468;DHT22;3267;48.794;9.928;2023-08-06T10:09:06;21.00;78.50
6468;DHT22;3267;48.794;9.928;2023-08-06T10:11:33;23.20;82.30
6468;DHT22;3267;48.794;9.928;2023-08-06T10:14:04;21.00;83.40
6468;DHT22;3267;48.794;9.928;2023-08-06T10:16:32;21.00;77.50
6468;DHT22;3267;48.794;9.928;2023-08-06T10:18:58;21.20;84.50
6468;DHT22;3267;48.794;9.928;2023-08-06T10:21:25;21.10;80.00
6468;DHT22;3267;48.794;9.928;2023-08-06T10:23:58;20.30;79.50
6468;DHT22;3267;48.794;9.928;2023-08-06T10:26:28;21.00;78.80
6468;DHT22;3267;48.794;9.928;2023-08-06T10:28:54;22.20;83.20
6468;DHT22;3267;48.794;9.928;2023-08-06T10:34:19;21.00;77.60
6468;DHT22;3267;48.794;9.928;2023-08-06T10:36:44;21.90;80.20
6468;DHT22;3267;48.794;9.928;2023-08-06T10:39:13;21.40;83.30
6468;DHT22;3267;48.794;9.928;2023-08-06T10:41:42;21.70;81.40
6468;DHT22;3267;48.794;9.928;2023-08-06T10:44:09;22.80;83.40
6468;DHT22;3267;48.794;9.928;2023-08-06T10:46:35;21.50;85.40
6468;DHT22;3267;48.794;9.928;2023-08-06T10:49:01;21.50;82.20
6468;DHT22;3267;48.794;9.928;2023-08-06T10:51:27;21.30;80.40
6468;DHT22;3267;48.794;9.928;2023-08-06T10:53:53;21.60;83.40
6468;DHT22;3267;48.794;9.928;2023-08-06T10:56:21;21.60;88.30
6468;DHT22;3267;48.794;9.928;2023-08-06T10:58:48;21.10;80.40
6468;DHT22;3267;48.794;9.928;2023-08-06T11:01:14;21.00;81.40
6468;DHT22;3267;48.794;9.928;2023-08-06T11:03:42;20.90;79.30
6468;DHT22;3267;48.794;9.928;2023-08-06T11:06:09;20.80;81.40
6468;DHT22;3267;48.794;9.928;2023-08-06T11:08:37;20.90;80.30
6468;DHT22;3267;48.794;9.928;2023-08-06T11:11:11;23.10;86.30
6468;DHT22;3267;48.794;9.928;2023-08-06T11:13:45;20.90;80.60
6468;DHT22;3267;48.794;9.928;2023-08-06T11:16:17;21.10;85.80
6468;DHT22;3267;48.794;9.928;2023-08-06T11:18:43;20.90;82.10
6468;DHT22;3267;48.794;9.928;2023-08-06T11:21:09;20.90;80.20
6468;DHT22;3267;48.794;9.928;2023-08-06T11:23:35;21.10;84.30
6468;DHT22;3267;48.794;9.928;2023-08-06T11:26:01;22.30;83.00
6468;DHT22;3267;48.794;9.928;2023-08-06T11:28:27;20.90;84.00
6468;DHT22;3267;48.794;9.928;2023-08-06T11:30:53;20.90;80.40
6468;DHT22;3267;48.794;9.928;2023-08-06T11:33:27;20.90;80.40
6468;DHT22;3267;48.794;9.928;2023-08-06T11:35:58;21.50;82.50
6468;DHT22;3267;48.794;9.928;2023-08-06T11:38:25;21.00;81.20
6468;DHT22;3267;48.794;9.928;2023-08-06T11:40:52;21.20;79.70
6468;DHT22;3267;48.794;9.928;2023-08-06T11:43:21;21.30;82.10
6468;DHT22;3267;48.794;9.928;2023-08-06T11:45:48;21.50;84.60
6468;DHT22;3267;48.794;9.928;2023-08-06T11:48:14;21.50;79.30
6468;DHT22;3267;48.794;9.928;2023-08-06T11:50:40;21.60;78.80
6468;DHT22;3267;48.794;9.928;2023-08-06T11:53:07;21.50;81.20
6468;DHT22;3267;48.794;9.928;2023-08-06T11:55:33;21.50;79.70
6468;DHT22;3267;48.794;9.928;2023-08-06T11:58:03;23.00;85.70
6468;DHT22;3267;48.794;9.928;2023-08-06T12:00:32;23.20;80.30
6468;DHT22;3267;48.794;9.928;2023-08-06T12:02:58;23.00;83.10
6468;DHT22;3267;48.794;9.928;2023-08-06T12:05:33;21.20;79.20
6468;DHT22;3267;48.794;9.928;2023-08-06T12:08:01;22.20;78.30
6468;DHT22;3267;48.794;9.928;2023-08-06T12:10:29;21.00;79.00
6468;DHT22;3267;48.794;9.928;2023-08-06T12:12:55;22.60;78.70
6468;DHT22;3267;48.794;9.928;2023-08-06T12:15:21;21.00;82.20
6468;DHT22;3267;48.794;9.928;2023-08-06T12:17:47;20.90;80.70
6468;DHT22;3267;48.794;9.928;2023-08-06T12:20:13;21.40;77.70
6468;DHT22;3267;48.794;9.928;2023-08-06T12:22:39;20.80;79.10
6468;DHT22;3267;48.794;9.928;2023-08-06T12:25:12;22.90;84.40
6468;DHT22;3267;48.794;9.928;2023-08-06T12:27:39;20.90;82.70
6468;DHT22;3267;48.794;9.928;2023-08-06T12:30:06;21.30;81.30
6468;DHT22;3267;48.794;9.928;2023-08-06T12:32:33;20.80;76.80
6468;DHT22;3267;48.794;9.928;2023-08-06T12:34:59;20.80;76.30
6468;DHT22;3267;48.794;9.928;2023-08-06T12:37:25;23.50;85.40
6468;DHT22;3267;48.794;9.928;2023-08-06T12:39:51;22.30;80.60
6468;DHT22;3267;48.794;9.928;2023-08-06T12:42:17;21.80;82.20
6468;DHT22;3267;48.794;9.928;2023-08-06T12:44:43;20.90;82.00
6468;DHT22;3267;48.794;9.928;2023-08-06T12:47:08;21.00;80.00
6468;DHT22;3267;48.794;9.928;2023-08-06T12:49:34;20.90;80.50
6468;DHT22;3267;48.794;9.928;2023-08-06T12:52:00;23.10;84.00
6468;DHT22;3267;48.794;9.928;2023-08-06T12:54:27;21.70;81.00
6468;DHT22;3267;48.794;9.928;2023-08-06T12:56:53;20.70;81.40
6468;DHT22;3267;48.794;9.928;2023-08-06T12:59:19;20.60;78.40
6468;DHT22;3267;48.794;9.928;2023-08-06T13:01:45;20.50;78.80
6468;DHT22;3267;48.794;9.928;2023-08-06T13:04:12;20.30;78.20
6468;DHT22;3267;48.794;9.928;2023-08-06T13:06:38;20.40;79.10
6468;DHT22;3267;48.794;9.928;2023-08-06T13:09:12;20.30;77.10
6468;DHT22;3267;48.794;9.928;2023-08-06T13:11:39;20.10;77.20
6468;DHT22;3267;48.794;9.928;2023-08-06T13:14:10;20.40;83.40
6468;DHT22;3267;48.794;9.928;2023-08-06T13:16:37;22.60;85.50
6468;DHT22;3267;48.794;9.928;2023-08-06T13:19:03;20.50;81.00
6468;DHT22;3267;48.794;9.928;2023-08-06T13:24:00;20.30;80.50
6468;DHT22;3267;48.794;9.928;2023-08-06T13:26:27;20.20;76.50
6468;DHT22;3267;48.794;9.928;2023-08-06T13:28:53;20.10;80.00
6468;DHT22;3267;48.794;9.928;2023-08-06T13:31:19;20.00;77.60
6468;DHT22;3267;48.794;9.928;2023-08-06T13:33:44;21.40;82.00
6468;DHT22;3267;48.794;9.928;2023-08-06T13:36:10;20.00;80.40
6468;DHT22;3267;48.794;9.928;2023-08-06T13:38:35;20.00;80.70
6468;DHT22;3267;48.794;9.928;2023-08-06T13:41:01;20.10;77.90
6468;DHT22;3267;48.794;9.928;2023-08-06T13:43:27;20.60;79.20
6468;DHT22;3267;48.794;9.928;2023-08-06T13:45:53;19.80;78.90
6468;DHT22;3267;48.794;9.928;2023-08-06T13:48:19;19.70;76.70
6468;DHT22;3267;48.794;9.928;2023-08-06T13:50:44;19.70;77.90
6468;DHT22;3267;48.794;9.928;2023-08-06T13:53:10;19.70;78.60
6468;DHT22;3267;48.794;9.928;2023-08-06T13:55:36;19.80;80.10
6468;DHT22;3267;48.794;9.928;2023-08-06T13:58:01;19.90;80.00
6468;DHT22;3267;48.794;9.928;2023-08-06T14:00:28;19.80;79.50
6468;DHT22;3267;48.794;9.928;2023-08-06T14:02:53;19.70;77.60
6468;DHT22;3267;48.794;9.928;2023-08-06T14:05:19;20.60;78.00
6468;DHT22;3267;48.794;9.928;2023-08-06T14:07:45;19.70;77.50
6468;DHT22;3267;48.794;9.928;2023-08-06T14:10:10;19.60;76.60
6468;DHT22;3267;48.794;9.928;2023-08-06T14:12:36;19.70;77.30
6468;DHT22;3267;48.794;9.928;2023-08-06T14:15:02;19.70;77.90
6468;DHT22;3267;48.794;9.928;2023-08-06T14:17:29;19.60;77.40
6468;DHT22;3267;48.794;9.928;2023-08-06T14:19:54;19.70;76.50
6468;DHT22;3267;48.794;9.928;2023-08-06T14:22:21;19.60;77.40
6468;DHT22;3267;48.794;9.928;2023-08-06T14:24:46;20.20;77.00
6468;DHT22;3267;48.794;9.928;2023-08-06T14:27:12;19.90;80.50
6468;DHT22;3267;48.794;9.928;2023-08-06T14:29:38;19.90;77.80
6468;DHT22;3267;48.794;9.928;2023-08-06T14:32:04;19.90;77.20
6468;DHT22;3267;48.794;9.928;2023-08-06T14:34:30;19.70;77.60
6468;DHT22;3267;48.794;9.928;2023-08-06T14:36:56;19.80;78.80
6468;DHT22;3267;48.794;9.928;2023-08-06T14:39:22;19.90;81.30
6468;DHT22;3267;48.794;9.928;2023-08-06T14:41:47;19.80;77.30
6468;DHT22;3267;48.794;9.928;2023-08-06T14:44:13;20.40;80.90
6468;DHT22;3267;48.794;9.928;2023-08-06T14:46:39;20.00;82.70
6468;DHT22;3267;48.794;9.928;2023-08-06T14:49:04;19.90;78.80
6468;DHT22;3267;48.794;9.928;2023-08-06T14:51:30;19.80;80.00
6468;DHT22;3267;48.794;9.928;2023-08-06T14:53:56;20.00;79.00
6468;DHT22;3267;48.794;9.928;2023-08-06T14:56:22;19.70;79.00
6468;DHT22;3267;48.794;9.928;2023-08-06T14:58:48;19.90;82.00
6468;DHT22;3267;48.794;9.928;2023-08-06T15:01:14;20.00;81.90
6468;DHT22;3267;48.794;9.928;2023-08-06T15:03:39;19.80;79.50
6468;DHT22;3267;48.794;9.928;2023-08-06T15:06:05;19.80;80.60
6468;DHT22;3267;48.794;9.928;2023-08-06T15:08:31;19.80;82.60
6468;DHT22;3267;48.794;9.928;2023-08-06T15:10:56;21.00;81.40
6468;DHT22;3267;48.794;9.928;2023-08-06T15:13:22;19.70;79.70
6468;DHT22;3267;48.794;9.928;2023-08-06T15:15:51;19.90;80.20
6468;DHT22;3267;48.794;9.928;2023-08-06T15:18:16;19.90;82.60
6468;DHT22;3267;48.794;9.928;2023-08-06T15:20:42;19.90;83.00
6468;DHT22;3267;48.794;9.928;2023-08-06T15:23:08;19.70;79.70
6468;DHT22;3267;48.794;9.928;2023-08-06T15:25:33;19.50;78.40
6468;DHT22;3267;48.794;9.928;2023-08-06T15:27:59;20.80;80.00
6468;DHT22;3267;48.794;9.928;2023-08-06T15:30:24;20.00;80.30
6468;DHT22;3267;48.794;9.928;2023-08-06T15:32:50;19.30;79.60
6468;DHT22;3267;48.794;9.928;2023-08-06T15:35:16;19.20;78.10
6468;DHT22;3267;48.794;9.928;2023-08-06T15:37:42;20.40;79.90
6468;DHT22;3267;48.794;9.928;2023-08-06T15:40:10;19.10;78.60
6468;DHT22;3267;48.794;9.928;2023-08-06T15:42:36;19.20;80.50
6468;DHT22;3267;48.794;9.928;2023-08-06T15:45:01;19.10;77.40
6468;DHT22;3267;48.794;9.928;2023-08-06T15:47:28;19.00;77.90
6468;DHT22;3267;48.794;9.928;2023-08-06T15:49:54;19.10;79.90
6468;DHT22;3267;48.794;9.928;2023-08-06T15:52:20;19.10;78.90
6468;DHT22;3267;48.794;9.928;2023-08-06T15:54:45;19.00;78.60
6468;DHT22;3267;48.794;9.928;2023-08-06T15:57:12;19.10;78.50
6468;DHT22;3267;48.794;9.928;2023-08-06T15:59:38;18.90;79.40
6468;DHT22;3267;48.794;9.928;2023-08-06T16:02:08;18.80;78.50
